DLH1018 KEWR-EDDF
Flight info
| Callsign | DLH1018 |
|---|---|
| Flight time | N/A |
| Altitude | 39000 |
| Route | MERIT DCT HFD DCT PUT DCT BOS DCT BRADD N175G PORTI/M083F390 DCT 47N050W 49N040W 51N030W 53N020W DCT MALOT DCT GISTI/N0472F390 DCT ENJEX DCT ADHAV DCT AGCAT DCT AXNEF DCT ZIPWE DCT OZZIL DCT SAWPE Q63 CPT UL9 BIG L607 KONAN UL607 SPI T180 NIVNU T847 IMCOM IMCOM1A |
| Aircraft | A359/H-SDE2E3GHIJ3J4J5LM1ORWXY/LB1D1 |
Departure
| Time | 2026-05-04 20:55 |
|---|---|
| Airport | Newark Liberty International Airport (KEWR) |
Arrival
| Time | N/A |
|---|---|
| Airport | Frankfurt Main Airport (EDDF) |
| Time | Latitude | Longitude | Altitude | Speed | Heading |
|---|---|---|---|---|---|
| 2026-05-04 20:06 | 40.69186 | -74.17324 | 28 ft | 0 kts | 275° |
| 2026-05-04 20:40 | 40.69185 | -74.17301 | 28 ft | 3 kts | 275° |
| 2026-05-04 20:40 | 40.69182 | -74.17269 | 28 ft | 3 kts | 283° |
| 2026-05-04 20:41 | 40.69174 | -74.17240 | 28 ft | 3 kts | 301° |
| 2026-05-04 20:41 | 40.69160 | -74.17216 | 27 ft | 3 kts | 332° |
| 2026-05-04 20:41 | 40.69139 | -74.17210 | 28 ft | 4 kts | 17° |
| 2026-05-04 20:41 | 40.69132 | -74.17212 | 27 ft | 0 kts | 26° |
| 2026-05-04 20:48 | 40.69133 | -74.17212 | 28 ft | 1 kts | 26° |
| 2026-05-04 20:48 | 40.69149 | -74.17202 | 28 ft | 3 kts | 26° |
| 2026-05-04 20:49 | 40.69175 | -74.17185 | 28 ft | 5 kts | 26° |
| 2026-05-04 20:49 | 40.69212 | -74.17161 | 28 ft | 7 kts | 26° |
| 2026-05-04 20:49 | 40.69261 | -74.17131 | 28 ft | 9 kts | 26° |
| 2026-05-04 20:49 | 40.69321 | -74.17092 | 28 ft | 10 kts | 26° |
| 2026-05-04 20:50 | 40.69391 | -74.17048 | 28 ft | 12 kts | 26° |
| 2026-05-04 20:50 | 40.69470 | -74.16997 | 28 ft | 13 kts | 26° |
| 2026-05-04 20:50 | 40.69558 | -74.16941 | 28 ft | 15 kts | 26° |
| 2026-05-04 20:50 | 40.69655 | -74.16880 | 28 ft | 16 kts | 26° |
| 2026-05-04 20:51 | 40.69760 | -74.16813 | 28 ft | 17 kts | 26° |
| 2026-05-04 20:51 | 40.69874 | -74.16765 | 28 ft | 17 kts | 4° |
| 2026-05-04 20:51 | 40.69982 | -74.16753 | 28 ft | 9 kts | 5° |
| 2026-05-04 20:51 | 40.69995 | -74.16752 | 28 ft | 0 kts | 5° |
| 2026-05-04 20:52 | 40.70028 | -74.16748 | 28 ft | 10 kts | 5° |
| 2026-05-04 20:52 | 40.70078 | -74.16703 | 28 ft | 7 kts | 72° |
| 2026-05-04 20:52 | 40.70079 | -74.16683 | 28 ft | 0 kts | 90° |
| 2026-05-04 20:52 | 40.70077 | -74.16651 | 28 ft | 9 kts | 94° |
| 2026-05-04 20:53 | 40.70069 | -74.16530 | 27 ft | 15 kts | 95° |
| 2026-05-04 20:53 | 40.70061 | -74.16400 | 26 ft | 4 kts | 95° |
| 2026-05-04 20:53 | 40.70048 | -74.16373 | 28 ft | 3 kts | 139° |
| 2026-05-04 20:53 | 40.70026 | -74.16371 | 29 ft | 5 kts | 188° |
| 2026-05-04 20:54 | 40.69984 | -74.16389 | 26 ft | 7 kts | 206° |
| 2026-05-04 20:54 | 40.69933 | -74.16422 | 29 ft | 9 kts | 206° |
| 2026-05-04 20:54 | 40.69827 | -74.16491 | 27 ft | 32 kts | 206° |
| 2026-05-04 20:54 | 40.69436 | -74.16740 | 29 ft | 92 kts | 206° |
| 2026-05-04 20:55 | 40.68692 | -74.17215 | 30 ft | 144 kts | 206° |
| 2026-05-04 20:55 | 40.67694 | -74.17842 | 325 ft | 163 kts | 208° |
| 2026-05-04 20:55 | 40.66676 | -74.18459 | 983 ft | 163 kts | 201° |
| 2026-05-04 20:55 | 40.65551 | -74.18785 | 1464 ft | 172 kts | 193° |
| 2026-05-04 20:56 | 40.64354 | -74.19237 | 1803 ft | 188 kts | 204° |
| 2026-05-04 20:56 | 40.63102 | -74.19995 | 2090 ft | 209 kts | 208° |
| 2026-05-04 20:56 | 40.61739 | -74.20920 | 2394 ft | 232 kts | 209° |
| 2026-05-04 20:56 | 40.60251 | -74.21937 | 2493 ft | 246 kts | 209° |
| 2026-05-04 20:57 | 40.58729 | -74.22970 | 2572 ft | 245 kts | 209° |
| 2026-05-04 20:57 | 40.57216 | -74.24000 | 3059 ft | 244 kts | 209° |
| 2026-05-04 20:57 | 40.55717 | -74.24993 | 3907 ft | 240 kts | 206° |
| 2026-05-04 20:57 | 40.54101 | -74.25635 | 4595 ft | 248 kts | 192° |
| 2026-05-04 20:58 | 40.52344 | -74.25528 | 5199 ft | 262 kts | 169° |
| 2026-05-04 20:58 | 40.50713 | -74.24367 | 5822 ft | 278 kts | 141° |
| 2026-05-04 20:58 | 40.49665 | -74.22191 | 6480 ft | 292 kts | 109° |
| 2026-05-04 20:58 | 40.49599 | -74.19512 | 7131 ft | 300 kts | 76° |
| 2026-05-04 20:59 | 40.50542 | -74.17089 | 7810 ft | 301 kts | 50° |
| 2026-05-04 20:59 | 40.51962 | -74.15044 | 8549 ft | 303 kts | 40° |
| 2026-05-04 20:59 | 40.53562 | -74.13223 | 9328 ft | 304 kts | 36° |
| 2026-05-04 20:59 | 40.55231 | -74.11491 | 10079 ft | 307 kts | 34° |
| 2026-05-04 21:00 | 40.56942 | -74.09713 | 10556 ft | 321 kts | 35° |
| 2026-05-04 21:00 | 40.58732 | -74.07793 | 10903 ft | 339 kts | 36° |
| 2026-05-04 21:00 | 40.60565 | -74.05751 | 11247 ft | 355 kts | 37° |
| 2026-05-04 21:00 | 40.62437 | -74.03603 | 11674 ft | 366 kts | 38° |
| 2026-05-04 21:01 | 40.64387 | -74.01329 | 12305 ft | 372 kts | 38° |
| 2026-05-04 21:01 | 40.66296 | -73.99083 | 12983 ft | 375 kts | 38° |
| 2026-05-04 21:01 | 40.68274 | -73.96758 | 13637 ft | 378 kts | 38° |
| 2026-05-04 21:01 | 40.70219 | -73.94472 | 14241 ft | 382 kts | 38° |
| 2026-05-04 21:02 | 40.72235 | -73.92104 | 14872 ft | 385 kts | 38° |
| 2026-05-04 21:02 | 40.74213 | -73.89781 | 15484 ft | 387 kts | 38° |
| 2026-05-04 21:02 | 40.76232 | -73.87411 | 16105 ft | 390 kts | 37° |
| 2026-05-04 21:02 | 40.78267 | -73.85021 | 16670 ft | 393 kts | 37° |
| 2026-05-04 21:03 | 40.80316 | -73.82613 | 17260 ft | 396 kts | 37° |
| 2026-05-04 21:03 | 40.82379 | -73.80188 | 17864 ft | 399 kts | 37° |
| 2026-05-04 21:03 | 40.84457 | -73.77745 | 18446 ft | 402 kts | 37° |
| 2026-05-04 21:03 | 40.86549 | -73.75284 | 19029 ft | 404 kts | 37° |
| 2026-05-04 21:04 | 40.88657 | -73.72800 | 19639 ft | 406 kts | 37° |
| 2026-05-04 21:04 | 40.90774 | -73.70303 | 20222 ft | 409 kts | 37° |
| 2026-05-04 21:04 | 40.92899 | -73.67793 | 20793 ft | 411 kts | 37° |
| 2026-05-04 21:04 | 40.95037 | -73.65267 | 21360 ft | 414 kts | 38° |
| 2026-05-04 21:05 | 40.97190 | -73.62719 | 21882 ft | 417 kts | 38° |
| 2026-05-04 21:05 | 40.99359 | -73.60151 | 22406 ft | 419 kts | 38° |
| 2026-05-04 21:05 | 41.01542 | -73.57565 | 22858 ft | 423 kts | 37° |
| 2026-05-04 21:05 | 41.03745 | -73.54957 | 23344 ft | 426 kts | 37° |
| 2026-05-04 21:06 | 41.05960 | -73.52328 | 23855 ft | 428 kts | 38° |
| 2026-05-04 21:06 | 41.08180 | -73.49688 | 24368 ft | 430 kts | 38° |
| 2026-05-04 21:06 | 41.10414 | -73.47029 | 24838 ft | 433 kts | 37° |
| 2026-05-04 21:06 | 41.12660 | -73.44354 | 25310 ft | 435 kts | 37° |
| 2026-05-04 21:07 | 41.14913 | -73.41667 | 25762 ft | 437 kts | 37° |
| 2026-05-04 21:07 | 41.17185 | -73.38956 | 26187 ft | 440 kts | 37° |
| 2026-05-04 21:07 | 41.19464 | -73.36233 | 26623 ft | 443 kts | 37° |
| 2026-05-04 21:07 | 41.21758 | -73.33488 | 27084 ft | 444 kts | 37° |
| 2026-05-04 21:08 | 41.24056 | -73.30738 | 27515 ft | 446 kts | 37° |
| 2026-05-04 21:08 | 41.26366 | -73.27972 | 27993 ft | 447 kts | 37° |
| 2026-05-04 21:08 | 41.28678 | -73.25201 | 28413 ft | 448 kts | 37° |